Time,TemperatureF,DewpointF,PressureIn,WindDirection,WindDirectionDegrees,WindSpeedMPH,WindSpeedGustMPH,Humidity,HourlyPrecipIn,Conditions,Clouds,dailyrainin,SoftwareType,DateUTC
2013-07-27 00:04:00,62.6,62.0,29.91,WNW,292,0.0,-999.0,98,-99.99,,,0.00,Acu-Link.com,2013-07-27 04:04:00,
2013-07-27 00:19:00,62.6,62.0,29.91,NW,315,0.0,-999.0,98,-99.99,,,0.00,Acu-Link.com,2013-07-27 04:19:00,
2013-07-27 00:34:00,62.4,61.8,29.92,NNW,337,0.0,-999.0,98,-99.99,,,0.00,Acu-Link.com,2013-07-27 04:34:00,
2013-07-27 00:50:00,62.2,61.6,29.91,NNW,337,0.0,-999.0,98,-99.99,,,0.00,Acu-Link.com,2013-07-27 04:50:00,
2013-07-27 01:05:00,62.2,61.6,29.92,ENE,67,0.0,-999.0,98,-99.99,,,0.00,Acu-Link.com,2013-07-27 05:05:00,
2013-07-27 01:20:00,62.2,61.6,29.91,NNE,22,0.0,-999.0,98,-99.99,,,0.00,Acu-Link.com,2013-07-27 05:20:00,
2013-07-27 01:35:00,62.1,61.5,29.90,North,0,0.0,-999.0,98,-99.99,,,0.00,Acu-Link.com,2013-07-27 05:35:00,
2013-07-27 01:50:00,61.9,61.3,29.90,North,0,0.0,-999.0,98,-99.99,,,0.00,Acu-Link.com,2013-07-27 05:50:00,
2013-07-27 02:06:00,61.5,60.9,29.90,NNE,22,0.0,-999.0,98,-99.99,,,0.00,Acu-Link.com,2013-07-27 06:06:00,
2013-07-27 02:21:00,61.3,60.7,29.90,NNE,22,0.0,-999.0,98,-99.99,,,0.00,Acu-Link.com,2013-07-27 06:21:00,
2013-07-27 02:51:00,61.0,60.4,29.90,NNE,22,0.0,-999.0,98,-99.99,,,0.00,Acu-Link.com,2013-07-27 06:51:00,
2013-07-27 03:06:00,60.3,59.7,29.90,NNE,22,0.0,-999.0,98,-99.99,,,0.00,Acu-Link.com,2013-07-27 07:06:00,
2013-07-27 03:22:00,60.1,59.5,29.89,NNE,22,0.0,-999.0,98,-99.99,,,0.00,Acu-Link.com,2013-07-27 07:22:00,
2013-07-27 03:37:00,59.5,58.9,29.89,NNE,22,0.0,-999.0,98,-99.99,,,0.00,Acu-Link.com,2013-07-27 07:37:00,
2013-07-27 03:52:00,59.2,58.6,29.90,NNE,22,0.0,-999.0,98,-99.99,,,0.00,Acu-Link.com,2013-07-27 07:52:00,
2013-07-27 04:07:00,59.4,58.8,29.90,NW,315,0.0,-999.0,98,-99.99,,,0.00,Acu-Link.com,2013-07-27 08:07:00,
2013-07-27 04:23:00,59.2,58.6,29.90,WNW,292,0.0,-999.0,98,-99.99,,,0.00,Acu-Link.com,2013-07-27 08:23:00,
2013-07-27 04:38:00,58.6,58.0,29.90,WNW,292,2.2,-999.0,98,-99.99,,,0.00,Acu-Link.com,2013-07-27 08:38:00,
2013-07-27 04:53:00,58.1,57.5,29.91,WNW,292,0.0,-999.0,98,-99.99,,,0.00,Acu-Link.com,2013-07-27 08:53:00,
2013-07-27 05:08:00,57.9,57.3,29.91,WNW,292,0.0,-999.0,98,-99.99,,,0.00,Acu-Link.com,2013-07-27 09:08:00,
2013-07-27 05:23:00,57.6,57.0,29.92,WNW,292,0.0,-999.0,98,-99.99,,,0.00,Acu-Link.com,2013-07-27 09:23:00,
2013-07-27 05:38:00,57.2,56.6,29.92,WNW,292,0.0,-999.0,98,-99.99,,,0.00,Acu-Link.com,2013-07-27 09:38:00,
2013-07-27 05:54:00,57.0,56.4,29.93,NW,315,0.0,-999.0,98,-99.99,,,0.00,Acu-Link.com,2013-07-27 09:54:00,
2013-07-27 06:09:00,57.0,56.4,29.94,NW,315,0.0,-999.0,98,-99.99,,,0.00,Acu-Link.com,2013-07-27 10:09:00,
2013-07-27 06:24:00,56.8,56.2,29.94,NW,315,0.0,-999.0,98,-99.99,,,0.00,Acu-Link.com,2013-07-27 10:24:00,
2013-07-27 06:40:00,57.2,56.6,29.94,WNW,292,0.0,-999.0,98,-99.99,,,0.00,Acu-Link.com,2013-07-27 10:40:00,
2013-07-27 06:55:00,57.7,57.1,29.94,NW,315,0.0,-999.0,98,-99.99,,,0.00,Acu-Link.com,2013-07-27 10:55:00,
2013-07-27 07:10:00,59.0,58.4,29.95,NW,315,0.0,-999.0,98,-99.99,,,0.00,Acu-Link.com,2013-07-27 11:10:00,
2013-07-27 07:25:00,60.4,59.8,29.95,NNW,337,0.0,-999.0,98,-99.99,,,0.00,Acu-Link.com,2013-07-27 11:25:00,
2013-07-27 07:40:00,61.2,60.6,29.95,NNW,337,0.0,-999.0,98,-99.99,,,0.00,Acu-Link.com,2013-07-27 11:40:00,
2013-07-27 07:56:00,62.6,62.0,29.96,WSW,247,1.1,-999.0,98,-99.99,,,0.00,Acu-Link.com,2013-07-27 11:56:00,
2013-07-27 08:26:00,65.5,64.9,29.96,West,270,0.0,-999.0,98,-99.99,,,0.00,Acu-Link.com,2013-07-27 12:26:00,
2013-07-27 08:41:00,66.7,66.1,29.96,North,0,0.0,-999.0,98,-99.99,,,0.00,Acu-Link.com,2013-07-27 12:41:00,
2013-07-27 08:57:00,67.8,67.2,29.95,WNW,292,0.0,-999.0,98,-99.99,,,0.00,Acu-Link.com,2013-07-27 12:57:00,
2013-07-27 09:12:00,69.3,68.7,29.95,East,90,0.0,-999.0,98,-99.99,,,0.00,Acu-Link.com,2013-07-27 13:12:00,
2013-07-27 09:27:00,71.1,70.5,29.95,North,0,0.0,-999.0,98,-99.99,,,0.00,Acu-Link.com,2013-07-27 13:27:00,
2013-07-27 09:42:00,74.5,70.0,29.95,ENE,67,1.1,-999.0,86,-99.99,,,0.00,Acu-Link.com,2013-07-27 13:42:00,
2013-07-27 09:58:00,75.7,71.5,29.95,WNW,292,0.0,-999.0,87,-99.99,,,0.00,Acu-Link.com,2013-07-27 13:58:00,
2013-07-27 10:13:00,76.8,70.1,29.95,ESE,112,1.7,-999.0,80,-99.99,,,0.00,Acu-Link.com,2013-07-27 14:13:00,
2013-07-27 10:28:00,77.7,69.9,29.95,North,0,0.0,-999.0,77,-99.99,,,0.00,Acu-Link.com,2013-07-27 14:28:00,
2013-07-27 10:43:00,79.5,71.6,29.95,NW,315,1.7,-999.0,77,-99.99,,,0.00,Acu-Link.com,2013-07-27 14:43:00,
2013-07-27 10:58:00,80.2,72.7,29.95,East,90,1.7,-999.0,78,-99.99,,,0.00,Acu-Link.com,2013-07-27 14:58:00,
2013-07-27 11:14:00,79.2,71.7,29.95,SSW,202,0.0,-999.0,78,-99.99,,,0.00,Acu-Link.com,2013-07-27 15:14:00,
2013-07-27 11:29:00,79.7,71.4,29.95,West,270,0.0,-999.0,76,-99.99,,,0.00,Acu-Link.com,2013-07-27 15:29:00,
2013-07-27 11:44:00,81.5,70.3,29.95,ESE,112,1.1,-999.0,69,-99.99,,,0.00,Acu-Link.com,2013-07-27 15:44:00,
2013-07-27 11:59:00,80.1,71.8,29.95,SW,225,1.1,-999.0,76,-99.99,,,0.00,Acu-Link.com,2013-07-27 15:59:00,
2013-07-27 12:15:00,81.9,71.1,29.94,ENE,67,1.7,-999.0,70,-99.99,,,0.00,Acu-Link.com,2013-07-27 16:15:00,
2013-07-27 12:30:00,81.7,72.6,29.94,ENE,67,1.7,-999.0,74,-99.99,,,0.00,Acu-Link.com,2013-07-27 16:30:00,
2013-07-27 12:45:00,83.1,72.3,29.94,East,90,1.7,-999.0,70,-99.99,,,0.00,Acu-Link.com,2013-07-27 16:45:00,
2013-07-27 13:00:00,82.2,73.1,29.93,South,180,1.1,-999.0,74,-99.99,,,0.00,Acu-Link.com,2013-07-27 17:00:00,
2013-07-27 13:15:00,83.1,72.7,29.93,WNW,292,1.7,-999.0,71,-99.99,,,0.00,Acu-Link.com,2013-07-27 17:15:00,
2013-07-27 13:31:00,81.7,72.2,29.93,SW,225,0.0,-999.0,73,-99.99,,,0.00,Acu-Link.com,2013-07-27 17:31:00,
2013-07-27 13:46:00,80.4,72.1,29.93,NW,315,0.0,-999.0,76,-99.99,,,0.00,Acu-Link.com,2013-07-27 17:46:00,
2013-07-27 14:01:00,82.8,71.1,29.92,WNW,292,1.1,-999.0,68,-99.99,,,0.00,Acu-Link.com,2013-07-27 18:01:00,
2013-07-27 14:16:00,85.1,72.9,29.93,SW,225,2.2,-999.0,67,-99.99,,,0.00,Acu-Link.com,2013-07-27 18:16:00,
2013-07-27 14:31:00,84.4,72.7,29.93,NE,45,0.0,-999.0,68,-99.99,,,0.00,Acu-Link.com,2013-07-27 18:31:00,
2013-07-27 14:47:00,83.7,73.7,29.93,NNE,22,1.7,-999.0,72,-99.99,,,0.00,Acu-Link.com,2013-07-27 18:47:00,
2013-07-27 15:02:00,82.9,72.5,29.92,WNW,292,0.0,-999.0,71,-99.99,,,0.00,Acu-Link.com,2013-07-27 19:02:00,
2013-07-27 15:17:00,82.2,72.7,29.91,SW,225,0.0,-999.0,73,-99.99,,,0.00,Acu-Link.com,2013-07-27 19:17:00,
2013-07-27 15:33:00,81.5,73.2,29.91,SW,225,0.0,-999.0,76,-99.99,,,0.00,Acu-Link.com,2013-07-27 19:33:00,
2013-07-27 15:48:00,80.6,72.3,29.90,WNW,292,0.0,-999.0,76,-99.99,,,0.00,Acu-Link.com,2013-07-27 19:48:00,
2013-07-27 16:03:00,80.6,71.9,29.91,NW,315,1.1,-999.0,75,-99.99,,,0.00,Acu-Link.com,2013-07-27 20:03:00,
2013-07-27 16:18:00,79.0,71.5,29.92,WNW,292,0.0,-999.0,78,-99.99,,,0.00,Acu-Link.com,2013-07-27 20:18:00,
2013-07-27 16:33:00,79.0,71.9,29.91,NNW,337,0.0,-999.0,79,-99.99,,,0.00,Acu-Link.com,2013-07-27 20:33:00,
2013-07-27 16:49:00,78.1,71.4,29.91,WNW,292,0.0,-999.0,80,-99.99,,,0.00,Acu-Link.com,2013-07-27 20:49:00,
2013-07-27 17:04:00,77.5,70.1,29.92,NW,315,0.0,-999.0,78,-99.99,,,0.00,Acu-Link.com,2013-07-27 21:04:00,
2013-07-27 17:19:00,77.2,70.5,29.91,North,0,0.0,-999.0,80,-99.99,,,0.00,Acu-Link.com,2013-07-27 21:19:00,
2013-07-27 17:34:00,76.5,70.6,29.90,NW,315,0.0,-999.0,82,-99.99,,,0.00,Acu-Link.com,2013-07-27 21:34:00,
2013-07-27 17:49:00,75.9,70.4,29.90,NW,315,0.0,-999.0,83,-99.99,,,0.00,Acu-Link.com,2013-07-27 21:49:00,
2013-07-27 18:05:00,75.9,70.0,29.91,WNW,292,0.0,-999.0,82,-99.99,,,0.00,Acu-Link.com,2013-07-27 22:05:00,
2013-07-27 18:20:00,75.2,70.4,29.90,SW,225,0.0,-999.0,85,-99.99,,,0.00,Acu-Link.com,2013-07-27 22:20:00,
2013-07-27 18:35:00,74.7,70.6,29.91,WNW,292,0.0,-999.0,87,-99.99,,,0.00,Acu-Link.com,2013-07-27 22:35:00,
2013-07-27 18:50:00,73.8,70.0,29.92,WNW,292,0.0,-999.0,88,-99.99,,,0.00,Acu-Link.com,2013-07-27 22:50:00,
2013-07-27 19:05:00,72.9,69.5,29.92,NW,315,0.0,-999.0,89,-99.99,,,0.00,Acu-Link.com,2013-07-27 23:05:00,
2013-07-27 19:21:00,72.0,68.9,29.92,NW,315,0.0,-999.0,90,-99.99,,,0.00,Acu-Link.com,2013-07-27 23:21:00,
2013-07-27 19:36:00,71.4,68.9,29.93,North,0,0.0,-999.0,92,-99.99,,,0.00,Acu-Link.com,2013-07-27 23:36:00,
2013-07-27 20:07:00,69.8,68.6,29.92,NW,315,0.0,-999.0,96,-99.99,,,0.00,Acu-Link.com,2013-07-28 00:07:00,
2013-07-27 20:22:00,68.7,67.5,29.94,NW,315,0.0,-999.0,96,-99.99,,,0.00,Acu-Link.com,2013-07-28 00:22:00,
2013-07-27 20:52:00,67.3,66.7,29.95,WNW,292,0.0,-999.0,98,-99.99,,,0.00,Acu-Link.com,2013-07-28 00:52:00,
2013-07-27 21:07:00,66.9,66.3,29.96,WNW,292,0.0,-999.0,98,-99.99,,,0.00,Acu-Link.com,2013-07-28 01:07:00,
2013-07-27 21:23:00,66.4,65.8,29.96,WNW,292,0.0,-999.0,98,-99.99,,,0.00,Acu-Link.com,2013-07-28 01:23:00,
2013-07-27 21:38:00,65.8,65.2,29.95,North,0,0.0,-999.0,98,-99.99,,,0.00,Acu-Link.com,2013-07-28 01:38:00,
2013-07-27 21:53:00,65.3,64.7,29.95,NE,45,0.0,-999.0,98,-99.99,,,0.00,Acu-Link.com,2013-07-28 01:53:00,
2013-07-27 22:08:00,64.9,64.3,29.97,NE,45,0.0,-999.0,98,-99.99,,,0.00,Acu-Link.com,2013-07-28 02:08:00,
2013-07-27 22:23:00,64.4,63.8,29.97,NE,45,0.0,-999.0,98,-99.99,,,0.00,Acu-Link.com,2013-07-28 02:23:00,
2013-07-27 22:39:00,64.2,63.6,29.96,NE,45,0.0,-999.0,98,-99.99,,,0.00,Acu-Link.com,2013-07-28 02:39:00,
2013-07-27 22:54:00,63.7,63.1,29.96,NE,45,0.0,-999.0,98,-99.99,,,0.00,Acu-Link.com,2013-07-28 02:54:00,
2013-07-27 23:09:00,63.1,62.5,29.95,NE,45,0.0,-999.0,98,-99.99,,,0.00,Acu-Link.com,2013-07-28 03:09:00,
2013-07-27 23:24:00,63.0,62.4,29.97,NE,45,0.0,-999.0,98,-99.99,,,0.00,Acu-Link.com,2013-07-28 03:24:00,
2013-07-27 23:39:00,62.4,61.8,29.96,NE,45,0.0,-999.0,98,-99.99,,,0.00,Acu-Link.com,2013-07-28 03:39:00,
2013-07-27 23:55:00,61.9,61.3,29.96,NE,45,0.0,-999.0,98,-99.99,,,0.00,Acu-Link.com,2013-07-28 03:55:00,